createdAt,value
2019-01-16T00:00:26.587Z,2.47
2019-01-16T00:03:04.585Z,2.23
2019-01-16T00:05:52.674Z,4.30
2019-01-16T00:08:24.688Z,2.37
2019-01-16T00:10:56.724Z,3.20
2019-01-16T00:13:45.016Z,3.60
2019-01-16T00:16:19.718Z,3.40
2019-01-16T00:18:55.317Z,1.90
2019-01-16T00:21:30.385Z,2.40
2019-01-16T00:24:18.675Z,4.20
2019-01-16T00:26:50.714Z,3.07
2019-01-16T00:29:23.020Z,6.27
2019-01-16T00:32:00.493Z,4.13
2019-01-16T00:34:48.857Z,10.67
2019-01-16T00:37:23.559Z,8.27
2019-01-16T00:40:04.732Z,11.83
2019-01-16T00:42:39.399Z,11.37
2019-01-16T00:45:17.837Z,11.63
2019-01-16T00:47:52.803Z,13.47
2019-01-16T00:50:30.551Z,15.87
2019-01-16T00:53:11.613Z,10.33
2019-01-16T00:55:52.815Z,10.63
2019-01-16T00:58:41.081Z,12.80
2019-01-16T01:01:19.316Z,10.03
2019-01-16T01:03:51.348Z,13.93
2019-01-16T01:06:23.376Z,21.30
2019-01-16T01:09:11.541Z,24.37
2019-01-16T01:11:43.558Z,20.03
2019-01-16T01:14:15.594Z,27.80
2019-01-16T01:17:03.910Z,27.37
2019-01-16T01:19:44.752Z,26.60
2019-01-16T01:22:16.773Z,27.37
2019-01-16T01:24:51.502Z,25.83
2019-01-16T01:27:23.527Z,37.53
2019-01-16T01:29:55.547Z,34.77
2019-01-16T01:32:27.568Z,27.87
2019-01-16T01:35:15.912Z,35.53
2019-01-16T01:37:47.930Z,35.03
2019-01-16T01:40:32.195Z,29.73
2019-01-16T01:43:07.194Z,36.47
2019-01-16T01:45:45.154Z,46.40
2019-01-16T01:48:17.197Z,44.93
2019-01-16T01:50:49.212Z,43.37
2019-01-16T01:53:30.432Z,38.07
2019-01-16T01:56:17.670Z,36.97
2019-01-16T01:59:05.169Z,37.47
2019-01-16T02:01:37.537Z,33.43
2019-01-16T02:04:12.881Z,37.40
2019-01-16T02:06:44.901Z,42.00
2019-01-16T02:09:17.010Z,35.07
2019-01-16T02:11:52.142Z,35.43
2019-01-16T02:14:40.600Z,30.40
2019-01-16T02:17:24.595Z,32.30
2019-01-16T02:19:56.634Z,20.97
2019-01-16T02:22:28.651Z,33.10
2019-01-16T02:25:06.681Z,33.07
2019-01-16T02:27:41.920Z,38.23
2019-01-16T02:30:21.921Z,31.80
2019-01-16T02:33:10.203Z,30.30
2019-01-16T02:35:54.200Z,32.13
2019-01-16T02:38:26.215Z,27.63
2019-01-16T02:41:01.023Z,42.10
2019-01-16T02:43:33.109Z,39.30
2019-01-16T02:46:11.435Z,39.37
2019-01-16T02:48:56.458Z,30.43
2019-01-16T02:51:46.687Z,33.13
2019-01-16T02:54:18.710Z,36.90
2019-01-16T02:56:56.314Z,38.57
2019-01-16T02:59:28.366Z,31.10
2019-01-16T03:02:03.035Z,25.73
2019-01-16T03:04:35.445Z,34.23
2019-01-16T03:07:13.138Z,28.27
2019-01-16T03:09:51.231Z,36.03
2019-01-16T03:12:29.001Z,31.10
2019-01-16T03:15:03.746Z,30.80
2019-01-16T03:17:51.931Z,25.57
2019-01-16T03:20:23.958Z,24.67
2019-01-16T03:23:07.974Z,29.47
2019-01-16T03:25:39.988Z,28.43
2019-01-16T03:28:12.019Z,25.67
2019-01-16T03:30:50.205Z,31.30
2019-01-16T03:33:25.254Z,26.57
2019-01-16T03:36:00.344Z,27.90
2019-01-16T03:38:35.476Z,22.37
2019-01-16T03:41:07.845Z,23.20
2019-01-16T03:43:57.915Z,25.80
2019-01-16T03:46:41.883Z,30.50
2019-01-16T03:49:14.094Z,29.63
2019-01-16T03:51:46.597Z,31.60
2019-01-16T03:54:35.291Z,30.33
2019-01-16T03:57:07.337Z,30.93
2019-01-16T03:59:39.442Z,23.97
2019-01-16T04:02:23.496Z,22.70
2019-01-16T04:04:55.565Z,23.67
2019-01-16T04:07:39.489Z,27.63
2019-01-16T04:10:19.708Z,22.90
2019-01-16T04:12:54.126Z,22.07
2019-01-16T04:15:26.158Z,23.17
2019-01-16T04:18:09.994Z,27.33
2019-01-16T04:20:54.222Z,27.03
2019-01-16T04:23:26.237Z,20.93
2019-01-16T04:26:14.674Z,20.73
2019-01-16T04:28:46.691Z,21.90
2019-01-16T04:31:24.654Z,21.23
2019-01-16T04:34:05.591Z,23.93
2019-01-16T04:36:37.616Z,23.50
2019-01-16T04:39:10.365Z,20.73
2019-01-16T04:42:00.676Z,21.77
2019-01-16T04:44:41.709Z,15.20
2019-01-16T04:47:29.358Z,23.83
2019-01-16T04:50:01.407Z,23.03
2019-01-16T04:52:36.366Z,24.23
2019-01-16T04:55:11.104Z,18.80
2019-01-16T04:57:43.135Z,17.50
2019-01-16T05:00:24.542Z,19.43
2019-01-16T05:03:13.068Z,21.77
2019-01-16T05:06:00.392Z,19.40
2019-01-16T05:08:47.350Z,18.33
2019-01-16T05:11:35.418Z,24.73
2019-01-16T05:14:07.441Z,19.83
2019-01-16T05:16:51.960Z,18.97
2019-01-16T05:19:40.367Z,23.33
2019-01-16T05:22:12.658Z,22.80
2019-01-16T05:24:44.751Z,22.93
2019-01-16T05:27:20.083Z,26.07
2019-01-16T05:30:01.778Z,18.17
2019-01-16T05:32:36.481Z,17.07
2019-01-16T05:35:14.428Z,21.80
2019-01-16T05:37:46.449Z,23.10
2019-01-16T05:40:18.848Z,20.93
2019-01-16T05:42:50.868Z,21.43
2019-01-16T05:45:31.821Z,25.83
2019-01-16T05:48:15.425Z,21.10
2019-01-16T05:50:47.466Z,26.33
2019-01-16T05:53:22.416Z,17.90
2019-01-16T05:56:00.143Z,20.57
2019-01-16T05:58:32.172Z,20.00
2019-01-16T06:01:07.170Z,19.10
2019-01-16T06:03:39.218Z,20.83
2019-01-16T06:06:27.477Z,22.00
2019-01-16T06:08:59.499Z,22.23
2019-01-16T06:11:47.915Z,24.40
2019-01-16T06:14:19.950Z,21.90
2019-01-16T06:16:55.154Z,22.20
2019-01-16T06:19:27.178Z,26.93
2019-01-16T06:22:02.111Z,20.27
2019-01-16T06:24:34.127Z,22.63
2019-01-16T06:27:21.404Z,19.60
2019-01-16T06:29:53.432Z,26.33
2019-01-16T06:32:43.706Z,20.97
2019-01-16T06:35:15.734Z,18.90
2019-01-16T06:37:53.496Z,24.40
2019-01-16T06:40:25.535Z,23.40
2019-01-16T06:42:57.571Z,21.60
2019-01-16T06:45:30.380Z,27.10
2019-01-16T06:48:08.213Z,23.37
2019-01-16T06:50:43.189Z,22.20
2019-01-16T06:53:31.657Z,26.30
2019-01-16T06:56:21.715Z,25.70
2019-01-16T06:58:53.749Z,27.00
2019-01-16T07:01:42.056Z,25.40
2019-01-16T07:04:17.082Z,23.87
2019-01-16T07:07:05.188Z,21.03
2019-01-16T07:09:46.840Z,28.30
2019-01-16T07:12:35.047Z,25.63
2019-01-16T07:15:20.576Z,23.17
2019-01-16T07:17:52.610Z,21.00
2019-01-16T07:20:39.675Z,24.80
2019-01-16T07:23:17.153Z,20.83
2019-01-16T07:26:05.210Z,21.80
2019-01-16T07:28:43.215Z,22.00
2019-01-16T07:31:17.903Z,23.47
2019-01-16T07:34:01.925Z,26.63
2019-01-16T07:36:33.955Z,20.53
2019-01-16T07:39:26.863Z,24.93
2019-01-16T07:41:58.886Z,22.57
2019-01-16T07:44:31.162Z,23.20
2019-01-16T07:47:12.041Z,26.37
2019-01-16T07:50:02.156Z,25.27
2019-01-16T07:52:34.188Z,23.50
2019-01-16T07:55:25.212Z,25.80
2019-01-16T07:58:05.961Z,25.37
2019-01-16T08:00:43.740Z,21.57
2019-01-16T08:03:41.396Z,27.23
2019-01-16T08:06:19.409Z,24.40
2019-01-16T08:09:06.748Z,22.60
2019-01-16T08:11:41.198Z,21.83
2019-01-16T08:14:15.905Z,21.87
2019-01-16T08:17:04.153Z,23.53
2019-01-16T08:19:54.512Z,23.73
2019-01-16T08:22:29.317Z,22.03
2019-01-16T08:25:01.338Z,28.40
2019-01-16T08:28:01.103Z,25.17
2019-01-16T08:30:33.121Z,23.97
2019-01-16T08:33:21.563Z,26.20
2019-01-16T08:36:02.553Z,31.13
2019-01-16T08:38:40.368Z,29.93
2019-01-16T08:41:29.035Z,25.10
2019-01-16T08:44:16.309Z,33.63
2019-01-16T08:46:51.002Z,23.90
2019-01-16T08:49:39.099Z,24.30
2019-01-16T08:52:23.271Z,29.20
2019-01-16T08:55:04.726Z,26.17
2019-01-16T08:57:48.877Z,25.20
2019-01-16T09:00:26.777Z,20.73
2019-01-16T09:03:15.240Z,26.07
2019-01-16T09:06:03.509Z,28.63
2019-01-16T09:08:51.676Z,28.27
2019-01-16T09:11:39.435Z,27.67
2019-01-16T09:14:20.413Z,30.43
2019-01-16T09:17:08.752Z,25.23
2019-01-16T09:19:41.067Z,24.80
2019-01-16T09:22:19.264Z,30.07
2019-01-16T09:24:51.315Z,26.00
2019-01-16T09:27:27.441Z,25.67
2019-01-16T09:30:17.991Z,28.63
2019-01-16T09:33:02.291Z,25.40
2019-01-16T09:35:49.846Z,23.23
2019-01-16T09:38:37.963Z,28.27
2019-01-16T09:41:16.141Z,32.80
2019-01-16T09:44:04.521Z,34.23
2019-01-16T09:46:42.503Z,38.70
2019-01-16T09:49:23.514Z,26.47
2019-01-16T09:51:55.542Z,34.33
2019-01-16T09:54:43.893Z,32.20
2019-01-16T09:57:15.932Z,30.70
2019-01-16T09:59:47.974Z,31.73
2019-01-16T10:02:36.440Z,31.13
2019-01-16T10:05:26.589Z,30.90
2019-01-16T10:07:58.621Z,33.60
2019-01-16T10:10:42.865Z,41.53
2019-01-16T10:13:21.033Z,35.50
2019-01-16T10:16:09.370Z,35.47
2019-01-16T10:18:57.506Z,41.10
2019-01-16T10:21:45.940Z,33.03
2019-01-16T10:24:20.890Z,34.33
2019-01-16T10:27:01.984Z,39.27
2019-01-16T10:29:36.976Z,33.73
2019-01-16T10:32:27.341Z,36.73
2019-01-16T10:35:00.477Z,33.70
2019-01-16T10:37:32.709Z,34.50
2019-01-16T10:40:07.861Z,36.20
2019-01-16T10:42:54.949Z,32.60
2019-01-16T10:45:27.021Z,34.50
2019-01-16T10:48:16.068Z,36.27
2019-01-16T10:50:48.327Z,35.77
2019-01-16T10:53:23.420Z,40.13
2019-01-16T10:56:13.752Z,34.80
2019-01-16T10:59:02.195Z,38.53
2019-01-16T11:01:34.219Z,36.70
2019-01-16T11:04:22.762Z,34.07
2019-01-16T11:07:11.212Z,36.23
2019-01-16T11:09:59.360Z,36.57
2019-01-16T11:12:47.737Z,35.60
2019-01-16T11:15:35.856Z,32.40
2019-01-16T11:18:14.079Z,29.80
2019-01-16T11:21:01.215Z,30.07
2019-01-16T11:23:51.492Z,32.60
2019-01-16T11:26:26.254Z,32.97
2019-01-16T11:29:10.114Z,30.00
2019-01-16T11:31:42.134Z,30.80
2019-01-16T11:34:30.568Z,31.90
2019-01-16T11:37:02.608Z,36.13
2019-01-16T11:39:46.369Z,41.47
2019-01-16T11:42:34.828Z,44.50
2019-01-16T11:45:10.092Z,31.50
2019-01-16T11:47:42.130Z,31.67
2019-01-16T11:50:25.910Z,28.53
2019-01-16T11:52:58.008Z,31.27
2019-01-16T11:55:48.018Z,45.57
2019-01-16T11:58:20.058Z,31.37
2019-01-16T12:01:01.111Z,24.53
2019-01-16T12:03:39.153Z,27.27
2019-01-16T12:06:11.180Z,26.80
2019-01-16T12:08:49.307Z,25.83
2019-01-16T12:11:33.414Z,25.83
2019-01-16T12:14:05.480Z,27.73
2019-01-16T12:16:43.182Z,27.43
2019-01-16T12:19:15.227Z,26.63
2019-01-16T12:21:59.497Z,24.20
2019-01-16T12:24:43.587Z,23.87
2019-01-16T12:27:30.897Z,25.43
2019-01-16T12:30:12.102Z,26.87
2019-01-16T12:32:50.192Z,28.73
2019-01-16T12:35:38.909Z,24.47
2019-01-16T12:38:27.924Z,24.20
2019-01-16T12:41:02.842Z,25.10
2019-01-16T12:43:35.250Z,29.00
2019-01-16T12:46:13.512Z,20.80
2019-01-16T12:48:48.996Z,25.17
2019-01-16T12:51:22.716Z,26.50
2019-01-16T12:53:55.787Z,24.17
2019-01-16T12:56:39.852Z,22.30
2019-01-16T12:59:18.123Z,24.70
2019-01-16T13:01:55.980Z,27.37
2019-01-16T13:04:39.792Z,23.93
2019-01-16T13:07:11.855Z,26.50
2019-01-16T13:09:59.102Z,26.17
2019-01-16T13:12:37.080Z,22.37
2019-01-16T13:15:25.838Z,20.73
2019-01-16T13:18:00.987Z,23.60
2019-01-16T13:20:34.139Z,22.47
2019-01-16T13:23:06.177Z,21.63
2019-01-16T13:25:53.895Z,26.03
2019-01-16T13:28:41.818Z,24.47
2019-01-16T13:31:30.383Z,21.37
2019-01-16T13:34:02.490Z,23.07
2019-01-16T13:36:37.489Z,21.93
2019-01-16T13:39:19.420Z,25.53
2019-01-16T13:42:06.783Z,18.63
2019-01-16T13:44:51.132Z,17.03
2019-01-16T13:47:26.225Z,23.37
2019-01-16T13:50:04.207Z,22.77
2019-01-16T13:52:42.301Z,19.13
2019-01-16T13:55:14.407Z,22.00
2019-01-16T13:57:49.284Z,18.40
2019-01-16T14:00:36.280Z,19.20
2019-01-16T14:03:08.603Z,18.53
2019-01-16T14:05:49.426Z,18.73
2019-01-16T14:08:21.449Z,18.77
2019-01-16T14:11:01.413Z,17.93
2019-01-16T14:13:40.582Z,15.90
2019-01-16T14:16:15.845Z,17.47
2019-01-16T14:18:50.649Z,16.37
2019-01-16T14:21:40.871Z,17.60
2019-01-16T14:24:18.791Z,15.50
2019-01-16T14:27:05.879Z,16.93
2019-01-16T14:29:49.734Z,14.87
2019-01-16T14:32:29.122Z,16.03
2019-01-16T14:35:10.322Z,14.17
2019-01-16T14:37:42.386Z,19.77
2019-01-16T14:40:14.446Z,16.03
2019-01-16T14:42:46.464Z,15.67
2019-01-16T14:45:18.517Z,14.40
2019-01-16T14:48:05.354Z,15.70
2019-01-16T14:50:37.644Z,16.07
2019-01-16T14:53:19.015Z,16.13
2019-01-16T14:55:53.928Z,16.40
2019-01-16T14:58:35.049Z,17.27
2019-01-16T15:01:18.850Z,16.77
2019-01-16T15:04:09.222Z,16.10
2019-01-16T15:06:41.260Z,15.87
2019-01-16T15:09:29.508Z,18.90
2019-01-16T15:12:04.213Z,15.13
2019-01-16T15:14:48.109Z,18.60
2019-01-16T15:17:20.208Z,16.93
2019-01-16T15:20:08.211Z,18.57
2019-01-16T15:22:40.254Z,17.50
2019-01-16T15:25:12.265Z,17.37
2019-01-16T15:27:47.006Z,17.83
2019-01-16T15:30:22.234Z,18.93
2019-01-16T15:33:10.429Z,16.30
2019-01-16T15:35:58.690Z,16.57
2019-01-16T15:38:36.482Z,16.23
2019-01-16T15:41:23.434Z,16.77
2019-01-16T15:44:00.865Z,17.37
2019-01-16T15:46:41.691Z,18.87
2019-01-16T15:49:29.477Z,17.53
2019-01-16T15:52:19.624Z,17.67
2019-01-16T15:54:54.581Z,17.47
2019-01-16T15:57:41.684Z,16.30
2019-01-16T16:00:26.634Z,18.43
2019-01-16T16:02:58.651Z,17.37
2019-01-16T16:05:36.584Z,15.43
2019-01-16T16:08:20.685Z,14.93
2019-01-16T16:10:52.746Z,17.73
2019-01-16T16:13:24.765Z,16.80
2019-01-16T16:15:56.801Z,14.03
2019-01-16T16:18:31.749Z,15.77
2019-01-16T16:21:03.775Z,16.03
2019-01-16T16:23:35.814Z,13.67
2019-01-16T16:26:16.980Z,13.70
2019-01-16T16:29:00.800Z,17.13
2019-01-16T16:31:32.864Z,14.53
2019-01-16T16:34:04.904Z,14.27
2019-01-16T16:36:37.006Z,17.63
2019-01-16T16:39:12.881Z,13.07
2019-01-16T16:41:47.817Z,12.37
2019-01-16T16:44:20.384Z,15.20
2019-01-16T16:46:55.299Z,11.20
2019-01-16T16:49:43.472Z,11.33
2019-01-16T16:52:33.716Z,13.27
2019-01-16T16:55:22.565Z,11.60
2019-01-16T16:58:06.478Z,10.87
2019-01-16T17:00:38.534Z,9.83
2019-01-16T17:03:13.343Z,12.40
2019-01-16T17:06:00.449Z,11.03
2019-01-16T17:08:35.204Z,10.17
2019-01-16T17:11:13.308Z,11.30
2019-01-16T17:13:48.908Z,12.33
2019-01-16T17:16:19.042Z,9.07
2019-01-16T17:19:07.458Z,10.40
2019-01-16T17:21:42.697Z,9.40
2019-01-16T17:24:26.863Z,9.30
2019-01-16T17:27:04.823Z,11.80
2019-01-16T17:29:45.535Z,11.93
2019-01-16T17:32:33.653Z,10.50
2019-01-16T17:35:08.879Z,12.80
2019-01-16T17:37:44.043Z,9.97
2019-01-16T17:40:29.887Z,10.50
2019-01-16T17:43:07.921Z,17.47
2019-01-16T17:45:54.659Z,11.07
2019-01-16T17:48:32.424Z,13.17
2019-01-16T17:51:04.536Z,12.33
2019-01-16T17:53:42.447Z,14.80
2019-01-16T17:56:17.202Z,16.87
2019-01-16T17:58:57.984Z,16.03
2019-01-16T18:01:46.344Z,16.77
2019-01-16T18:04:18.402Z,15.60
2019-01-16T18:06:50.437Z,15.70
2019-01-16T18:09:31.464Z,16.50
2019-01-16T18:12:15.357Z,15.93
2019-01-16T18:15:03.676Z,18.23
2019-01-16T18:17:41.691Z,18.73
2019-01-16T18:20:17.758Z,17.77
2019-01-16T18:22:58.836Z,19.57
2019-01-16T18:25:39.631Z,18.97
2019-01-16T18:28:18.896Z,23.50
2019-01-16T18:30:53.898Z,21.80
2019-01-16T18:33:26.401Z,21.77
2019-01-16T18:36:07.372Z,22.27
2019-01-16T18:38:54.481Z,20.83
2019-01-16T18:41:42.415Z,22.50
2019-01-16T18:44:30.645Z,20.03
2019-01-16T18:47:02.682Z,22.07
2019-01-16T18:49:40.405Z,24.13
2019-01-16T18:52:12.431Z,25.27
2019-01-16T18:54:47.366Z,25.90
2019-01-16T18:57:34.213Z,25.33
2019-01-16T19:00:12.621Z,26.40
2019-01-16T19:02:44.638Z,23.23
2019-01-16T19:05:32.528Z,24.33
2019-01-16T19:08:20.947Z,24.10
2019-01-16T19:11:09.117Z,22.80
2019-01-16T19:13:43.803Z,22.70
2019-01-16T19:16:21.347Z,25.33
2019-01-16T19:18:56.298Z,26.03
2019-01-16T19:21:44.268Z,23.90
2019-01-16T19:24:22.041Z,23.73
2019-01-16T19:26:54.077Z,24.87
2019-01-16T19:29:38.130Z,26.43
2019-01-16T19:32:15.954Z,24.10
2019-01-16T19:34:50.899Z,24.67
2019-01-16T19:37:22.944Z,25.63
2019-01-16T19:39:57.993Z,26.37
2019-01-16T19:42:33.100Z,27.10
2019-01-16T19:45:17.256Z,28.60
2019-01-16T19:48:05.202Z,24.70
2019-01-16T19:50:40.041Z,27.40
2019-01-16T19:53:14.816Z,27.93
2019-01-16T19:56:02.939Z,28.93
2019-01-16T20:00:48.449Z,29.80
2019-01-16T20:03:40.053Z,32.90
2019-01-16T20:06:22.625Z,29.93
2019-01-16T20:09:04.544Z,31.03
2019-01-16T20:11:37.856Z,25.83
2019-01-16T20:14:10.797Z,32.23
2019-01-16T20:17:02.159Z,28.93
2019-01-16T20:19:37.866Z,26.03
2019-01-16T20:22:23.137Z,34.30
2019-01-16T20:24:59.054Z,27.83
2019-01-16T20:27:38.165Z,26.10
2019-01-16T20:30:17.811Z,27.10
2019-01-16T20:32:50.764Z,23.67
2019-01-16T20:35:26.768Z,25.77
2019-01-16T20:38:06.214Z,25.40
2019-01-16T20:40:47.878Z,26.93
2019-01-16T20:43:29.826Z,27.37
2019-01-16T20:46:02.773Z,25.57
2019-01-16T20:48:38.419Z,25.97
2019-01-16T20:51:17.486Z,27.17
2019-01-16T20:53:56.620Z,26.00
2019-01-16T20:56:29.568Z,23.80
2019-01-16T20:59:05.387Z,28.03
2019-01-16T21:01:47.343Z,24.57
2019-01-16T21:04:29.046Z,27.77
2019-01-16T21:07:02.049Z,28.60
2019-01-16T21:09:46.851Z,27.00
2019-01-16T21:12:36.234Z,23.40
2019-01-16T21:15:21.639Z,25.93
2019-01-16T21:18:06.829Z,29.20
2019-01-16T21:20:52.205Z,25.60
2019-01-16T21:23:43.365Z,24.40
2019-01-16T21:26:32.669Z,25.37
2019-01-16T21:29:14.604Z,22.67
2019-01-16T21:31:53.499Z,24.53
2019-01-16T21:34:32.598Z,26.03
2019-01-16T21:37:17.476Z,21.47
2019-01-16T21:39:59.340Z,24.97
2019-01-16T21:42:48.856Z,29.23
2019-01-16T21:45:38.044Z,27.13
2019-01-16T21:48:25.960Z,26.20
2019-01-16T21:50:58.975Z,23.17
2019-01-16T21:53:31.919Z,28.50
2019-01-16T21:56:21.169Z,26.57
2019-01-16T21:58:54.194Z,26.47
2019-01-16T22:01:33.093Z,29.03
2019-01-16T22:04:09.596Z,29.53
2019-01-16T22:06:48.426Z,30.67
2019-01-16T22:09:37.558Z,31.90
2019-01-16T22:12:13.194Z,28.73
2019-01-16T22:14:48.790Z,26.67
2019-01-16T22:17:24.690Z,28.57
2019-01-16T22:20:00.591Z,34.03
2019-01-16T22:22:39.503Z,33.13
2019-01-16T22:25:28.775Z,25.80
2019-01-16T22:28:01.740Z,27.43
2019-01-16T22:30:34.668Z,28.17
2019-01-16T22:33:07.609Z,31.40
2019-01-16T22:35:41.223Z,29.60
2019-01-16T22:38:26.535Z,33.07
2019-01-16T22:41:02.164Z,29.97
2019-01-16T22:43:35.125Z,27.03
2019-01-16T22:46:10.858Z,30.97
2019-01-16T22:48:43.810Z,25.97
2019-01-16T22:51:32.900Z,28.87
2019-01-16T22:54:05.848Z,31.33
2019-01-16T22:56:38.781Z,27.93
2019-01-16T22:59:27.861Z,31.73
2019-01-16T23:02:01.170Z,32.00
2019-01-16T23:04:50.308Z,33.07
2019-01-16T23:07:25.901Z,32.57
2019-01-16T23:09:58.828Z,33.83
2019-01-16T23:12:40.575Z,28.27
2019-01-16T23:15:19.740Z,30.30
2019-01-16T23:17:53.154Z,26.97
2019-01-16T23:20:43.016Z,26.17
2019-01-16T23:23:25.090Z,32.43
2019-01-16T23:26:10.490Z,26.10
2019-01-16T23:28:59.587Z,27.17
2019-01-16T23:31:35.513Z,31.30
2019-01-16T23:34:11.787Z,30.33
2019-01-16T23:36:53.764Z,27.83
2019-01-16T23:39:32.959Z,25.30
2019-01-16T23:42:22.325Z,28.53
2019-01-16T23:44:58.665Z,29.80
2019-01-16T23:47:50.408Z,26.37
2019-01-16T23:50:35.262Z,24.00
2019-01-16T23:53:08.205Z,28.10
2019-01-16T23:55:47.137Z,30.50
2019-01-16T23:58:36.645Z,23.23
